This is the latest recevied weather packets stored in our database for station/object KO6MEX-13. If no packets are shown the sender has not sent any weather packets the latest 10 day(s).
| Time | Temp. | Humidity | Pressure | Rain* | Wind** | Luminosity | Snow |
|---|---|---|---|---|---|---|---|
| 1777082635 | 16.11° C | 63% | 1015.8 hPa | 0 mm | - | 18 W/m² | - |
| 1777082331 | 16.67° C | 62% | 1015.9 hPa | 0 mm | - | 19 W/m² | - |
| 1777082026 | 16.67° C | 62% | 1015.9 hPa | 0 mm | - | 23 W/m² | - |
| 1777081721 | 17.22° C | 60% | 1016 hPa | 0 mm | - | 26 W/m² | - |
| 1777081417 | 17.78° C | 59% | 1016.1 hPa | 0 mm | - | 28 W/m² | - |
| 1777081113 | 18.33° C | 57% | 1016.2 hPa | 0 mm | - | 31 W/m² | - |
| 1777080812 | 18.33° C | 55% | 1016.2 hPa | 0 mm | - | 82 W/m² | - |
| 1777080508 | 18.89° C | 55% | 1016.1 hPa | 0 mm | - | 111 W/m² | - |
| 1777080207 | 19.44° C | 54% | 1015.9 hPa | 0 mm | - | 104 W/m² | - |
| 1777079902 | 20° C | 53% | 1016 hPa | 0 mm | - | 140 W/m² | - |
| 1777079596 | 20° C | 51% | 1015.9 hPa | 0 mm | - | 154 W/m² | - |
| 1777079292 | 20.56° C | 51% | 1015.8 hPa | 0 mm | - | 163 W/m² | - |
| 1777078989 | 21.11° C | 50% | 1016 hPa | 0 mm | - | 140 W/m² | - |
| 1777078685 | 21.11° C | 50% | 1015.7 hPa | 0 mm | - | 203 W/m² | - |
| 1777078383 | 20.56° C | 50% | 1015.8 hPa | 0 mm | - | 213 W/m² | - |
| 1777078081 | 21.11° C | 49% | 1015.9 hPa | 0 mm | - | 230 W/m² | - |
| 1777077776 | 21.11° C | 48% | 1016.2 hPa | 0 mm | - | 258 W/m² | - |
| 1777077474 | 20.56° C | 50% | 1015.6 hPa | 0 mm | - | 280 W/m² | - |
| 1777077174 | 20.56° C | 51% | 1015.8 hPa | 0 mm | - | 297 W/m² | - |
| 1777076873 | 20° C | 52% | 1016.1 hPa | 0 mm | - | 315 W/m² | - |
| 1777076569 | 19.44° C | 55% | 1015.8 hPa | 0 mm | - | 328 W/m² | - |
| 1777076265 | 20° C | 54% | 1015.9 hPa | 0 mm | - | 328 W/m² | - |
| 1777075961 | 20° C | 54% | 1015.9 hPa | 0 mm | - | 354 W/m² | - |
| 1777075657 | 20.56° C | 52% | 1015.6 hPa | 0 mm | - | 369 W/m² | - |
| 1777075353 | 19.44° C | 54% | 1015.8 hPa | 0 mm | - | 396 W/m² | - |
* Rain latest hour (hover to see other rain measurements)
** Current wind speed in m/s (hover to see current wind gust speed)